Terminal Aerodrome Forecast
Issued by NWS

Home | Current Version | Previous Version | Graphics & Text | Print | Product List | Glossary On
Versions: 1 2 3 4 5 6 7 8 9 10 11 12 13 14 15 16 17 18 19 20 21 22 23 24 25 26 27 28
223
FTUS43 KGRB 031138
TAFRHI
TAF
KRHI 031138Z 0312/0412 25005KT P6SM FEW120 SCT200
     FM031600 27010G16KT P6SM SCT050 BKN120
     FM031800 27011G15KT P6SM VCSH BKN050
      TEMPO 0318/0322 3SM -TSRA BKN040CB
     FM032200 32006KT P6SM VCTS BKN040CB
     FM040000 33007KT P6SM SCT040 BKN100
     FM040600 36006KT P6SM SCT025 BKN040=

USA.gov is the U.S. government's official web portal to all federal, state and local government web resources and services.